sensor_id;sensor_type;location;lat;lon;timestamp;temperature;humidity
5621;DHT22;2832;50.864;12.186;2023-11-22T00:02:15;11.10;99.90
5621;DHT22;2832;50.864;12.186;2023-11-22T00:04:42;11.00;99.90
5621;DHT22;2832;50.864;12.186;2023-11-22T00:07:13;11.00;99.90
5621;DHT22;2832;50.864;12.186;2023-11-22T00:09:41;10.90;99.90
5621;DHT22;2832;50.864;12.186;2023-11-22T00:12:09;10.90;99.90
5621;DHT22;2832;50.864;12.186;2023-11-22T00:14:41;10.60;99.90
5621;DHT22;2832;50.864;12.186;2023-11-22T00:17:14;10.50;99.90
5621;DHT22;2832;50.864;12.186;2023-11-22T00:19:46;10.50;99.90
5621;DHT22;2832;50.864;12.186;2023-11-22T00:22:14;10.30;99.90
5621;DHT22;2832;50.864;12.186;2023-11-22T00:24:42;10.30;99.90
5621;DHT22;2832;50.864;12.186;2023-11-22T00:27:14;10.20;99.90
5621;DHT22;2832;50.864;12.186;2023-11-22T00:29:43;10.20;99.90
5621;DHT22;2832;50.864;12.186;2023-11-22T00:32:10;10.10;99.90
5621;DHT22;2832;50.864;12.186;2023-11-22T00:34:47;10.00;99.90
5621;DHT22;2832;50.864;12.186;2023-11-22T00:37:15;10.10;99.90
5621;DHT22;2832;50.864;12.186;2023-11-22T00:39:42;9.80;99.90
5621;DHT22;2832;50.864;12.186;2023-11-22T00:42:11;9.80;99.90
5621;DHT22;2832;50.864;12.186;2023-11-22T00:44:39;9.80;99.90
5621;DHT22;2832;50.864;12.186;2023-11-22T00:47:08;9.90;99.90
5621;DHT22;2832;50.864;12.186;2023-11-22T00:49:40;10.00;99.90
5621;DHT22;2832;50.864;12.186;2023-11-22T00:52:11;10.10;99.90
5621;DHT22;2832;50.864;12.186;2023-11-22T00:54:39;10.10;99.90
5621;DHT22;2832;50.864;12.186;2023-11-22T00:57:09;10.10;99.90
5621;DHT22;2832;50.864;12.186;2023-11-22T00:59:38;10.20;99.90
5621;DHT22;2832;50.864;12.186;2023-11-22T01:02:06;10.20;99.90
5621;DHT22;2832;50.864;12.186;2023-11-22T01:04:35;10.20;99.90
5621;DHT22;2832;50.864;12.186;2023-11-22T01:07:04;10.30;99.90
5621;DHT22;2832;50.864;12.186;2023-11-22T01:09:37;10.30;99.90
5621;DHT22;2832;50.864;12.186;2023-11-22T01:12:05;10.30;99.90
5621;DHT22;2832;50.864;12.186;2023-11-22T01:14:36;10.20;99.90
5621;DHT22;2832;50.864;12.186;2023-11-22T01:17:04;10.20;99.90
5621;DHT22;2832;50.864;12.186;2023-11-22T01:19:32;10.20;99.90
5621;DHT22;2832;50.864;12.186;2023-11-22T01:22:00;10.20;99.90
5621;DHT22;2832;50.864;12.186;2023-11-22T01:24:28;10.20;99.90
5621;DHT22;2832;50.864;12.186;2023-11-22T01:27:00;10.30;99.90
5621;DHT22;2832;50.864;12.186;2023-11-22T01:29:29;10.30;99.90
5621;DHT22;2832;50.864;12.186;2023-11-22T01:31:57;10.30;99.90
5621;DHT22;2832;50.864;12.186;2023-11-22T01:34:25;10.30;99.90
5621;DHT22;2832;50.864;12.186;2023-11-22T01:36:53;10.30;99.90
5621;DHT22;2832;50.864;12.186;2023-11-22T01:39:22;10.30;99.90
5621;DHT22;2832;50.864;12.186;2023-11-22T01:41:50;10.30;99.90
5621;DHT22;2832;50.864;12.186;2023-11-22T01:44:29;10.30;99.90
5621;DHT22;2832;50.864;12.186;2023-11-22T01:46:56;10.20;99.90
5621;DHT22;2832;50.864;12.186;2023-11-22T01:49:26;10.10;99.90
5621;DHT22;2832;50.864;12.186;2023-11-22T01:51:53;10.10;99.90
5621;DHT22;2832;50.864;12.186;2023-11-22T01:54:22;10.20;99.90
5621;DHT22;2832;50.864;12.186;2023-11-22T01:56:52;10.20;99.90
5621;DHT22;2832;50.864;12.186;2023-11-22T01:59:22;10.20;99.90
5621;DHT22;2832;50.864;12.186;2023-11-22T02:01:51;10.20;99.90
5621;DHT22;2832;50.864;12.186;2023-11-22T02:04:18;10.20;99.90
5621;DHT22;2832;50.864;12.186;2023-11-22T02:06:48;10.20;99.90
5621;DHT22;2832;50.864;12.186;2023-11-22T02:09:16;10.20;99.90
5621;DHT22;2832;50.864;12.186;2023-11-22T02:11:47;10.20;99.90
5621;DHT22;2832;50.864;12.186;2023-11-22T02:14:16;10.20;99.90
5621;DHT22;2832;50.864;12.186;2023-11-22T02:17:07;10.10;99.90
5621;DHT22;2832;50.864;12.186;2023-11-22T02:19:37;9.90;99.90
5621;DHT22;2832;50.864;12.186;2023-11-22T02:22:06;9.90;99.90
5621;DHT22;2832;50.864;12.186;2023-11-22T02:24:38;9.90;99.90
5621;DHT22;2832;50.864;12.186;2023-11-22T02:27:07;9.90;99.90
5621;DHT22;2832;50.864;12.186;2023-11-22T02:29:36;10.00;99.90
5621;DHT22;2832;50.864;12.186;2023-11-22T02:32:05;10.00;99.90
5621;DHT22;2832;50.864;12.186;2023-11-22T02:34:35;10.10;99.90
5621;DHT22;2832;50.864;12.186;2023-11-22T02:37:06;10.00;99.90
5621;DHT22;2832;50.864;12.186;2023-11-22T02:39:44;10.10;99.90
5621;DHT22;2832;50.864;12.186;2023-11-22T02:42:17;10.10;99.90
5621;DHT22;2832;50.864;12.186;2023-11-22T02:44:48;10.10;99.90
5621;DHT22;2832;50.864;12.186;2023-11-22T02:47:20;10.10;99.90
5621;DHT22;2832;50.864;12.186;2023-11-22T02:49:48;10.10;99.90
5621;DHT22;2832;50.864;12.186;2023-11-22T02:52:18;10.00;99.90
5621;DHT22;2832;50.864;12.186;2023-11-22T02:54:52;10.00;99.90
5621;DHT22;2832;50.864;12.186;2023-11-22T02:57:19;10.00;99.90
5621;DHT22;2832;50.864;12.186;2023-11-22T02:59:50;10.00;99.90
5621;DHT22;2832;50.864;12.186;2023-11-22T03:02:18;10.00;99.90
5621;DHT22;2832;50.864;12.186;2023-11-22T03:04:46;10.10;99.90
5621;DHT22;2832;50.864;12.186;2023-11-22T03:07:15;10.00;99.90
5621;DHT22;2832;50.864;12.186;2023-11-22T03:09:43;9.90;99.90
5621;DHT22;2832;50.864;12.186;2023-11-22T03:12:15;9.90;99.90
5621;DHT22;2832;50.864;12.186;2023-11-22T03:14:44;9.90;99.90
5621;DHT22;2832;50.864;12.186;2023-11-22T03:17:14;9.90;99.90
5621;DHT22;2832;50.864;12.186;2023-11-22T03:19:42;9.90;99.90
5621;DHT22;2832;50.864;12.186;2023-11-22T03:22:14;9.90;99.90
5621;DHT22;2832;50.864;12.186;2023-11-22T03:24:42;10.00;99.90
5621;DHT22;2832;50.864;12.186;2023-11-22T03:27:11;9.90;99.90
5621;DHT22;2832;50.864;12.186;2023-11-22T03:29:40;10.00;99.90
5621;DHT22;2832;50.864;12.186;2023-11-22T03:32:12;10.10;99.90
5621;DHT22;2832;50.864;12.186;2023-11-22T03:34:41;10.10;99.90
5621;DHT22;2832;50.864;12.186;2023-11-22T03:37:09;10.10;99.90
5621;DHT22;2832;50.864;12.186;2023-11-22T03:39:38;10.10;99.90
5621;DHT22;2832;50.864;12.186;2023-11-22T03:42:06;10.10;99.90
5621;DHT22;2832;50.864;12.186;2023-11-22T03:44:39;10.00;99.90
5621;DHT22;2832;50.864;12.186;2023-11-22T03:47:10;10.00;99.90
5621;DHT22;2832;50.864;12.186;2023-11-22T03:49:38;10.00;99.90
5621;DHT22;2832;50.864;12.186;2023-11-22T03:52:06;10.00;99.90
5621;DHT22;2832;50.864;12.186;2023-11-22T03:54:36;10.00;99.90
5621;DHT22;2832;50.864;12.186;2023-11-22T03:57:06;10.00;99.90
5621;DHT22;2832;50.864;12.186;2023-11-22T03:59:35;10.10;99.90
5621;DHT22;2832;50.864;12.186;2023-11-22T04:02:13;10.10;99.90
5621;DHT22;2832;50.864;12.186;2023-11-22T04:04:44;10.00;99.90
5621;DHT22;2832;50.864;12.186;2023-11-22T04:07:13;10.00;99.90
5621;DHT22;2832;50.864;12.186;2023-11-22T04:09:48;10.00;99.90
5621;DHT22;2832;50.864;12.186;2023-11-22T04:12:17;10.00;99.90
5621;DHT22;2832;50.864;12.186;2023-11-22T04:14:45;9.90;99.90
5621;DHT22;2832;50.864;12.186;2023-11-22T04:17:24;10.00;99.90
5621;DHT22;2832;50.864;12.186;2023-11-22T04:19:54;10.00;99.90
5621;DHT22;2832;50.864;12.186;2023-11-22T04:22:22;10.00;99.90
5621;DHT22;2832;50.864;12.186;2023-11-22T04:24:49;10.00;99.90
5621;DHT22;2832;50.864;12.186;2023-11-22T04:27:17;9.90;99.90
5621;DHT22;2832;50.864;12.186;2023-11-22T04:29:45;9.90;99.90
5621;DHT22;2832;50.864;12.186;2023-11-22T04:32:13;9.80;99.90
5621;DHT22;2832;50.864;12.186;2023-11-22T04:34:43;9.60;99.90
5621;DHT22;2832;50.864;12.186;2023-11-22T04:37:10;9.50;99.90
5621;DHT22;2832;50.864;12.186;2023-11-22T04:39:39;9.60;99.90
5621;DHT22;2832;50.864;12.186;2023-11-22T04:42:06;9.60;99.90
5621;DHT22;2832;50.864;12.186;2023-11-22T04:44:35;9.50;99.90
5621;DHT22;2832;50.864;12.186;2023-11-22T04:47:04;9.50;99.90
5621;DHT22;2832;50.864;12.186;2023-11-22T04:49:32;9.50;99.90
5621;DHT22;2832;50.864;12.186;2023-11-22T04:52:02;9.40;99.90
5621;DHT22;2832;50.864;12.186;2023-11-22T04:54:30;9.40;99.90
5621;DHT22;2832;50.864;12.186;2023-11-22T04:57:04;9.40;99.90
5621;DHT22;2832;50.864;12.186;2023-11-22T04:59:32;9.40;99.90
5621;DHT22;2832;50.864;12.186;2023-11-22T05:02:00;9.40;99.90
5621;DHT22;2832;50.864;12.186;2023-11-22T05:04:28;9.40;99.90
5621;DHT22;2832;50.864;12.186;2023-11-22T05:06:56;9.40;99.90
5621;DHT22;2832;50.864;12.186;2023-11-22T05:09:27;9.40;99.90
5621;DHT22;2832;50.864;12.186;2023-11-22T05:11:57;9.40;99.90
5621;DHT22;2832;50.864;12.186;2023-11-22T05:14:25;9.50;99.90
5621;DHT22;2832;50.864;12.186;2023-11-22T05:16:54;9.50;99.90
5621;DHT22;2832;50.864;12.186;2023-11-22T05:19:23;9.50;99.90
5621;DHT22;2832;50.864;12.186;2023-11-22T05:21:57;9.40;99.90
5621;DHT22;2832;50.864;12.186;2023-11-22T05:24:31;9.50;99.90
5621;DHT22;2832;50.864;12.186;2023-11-22T05:27:03;9.40;99.90
5621;DHT22;2832;50.864;12.186;2023-11-22T05:29:35;9.40;99.90
5621;DHT22;2832;50.864;12.186;2023-11-22T05:32:07;9.40;99.90
5621;DHT22;2832;50.864;12.186;2023-11-22T05:34:39;9.50;99.90
5621;DHT22;2832;50.864;12.186;2023-11-22T05:37:11;9.50;99.90
5621;DHT22;2832;50.864;12.186;2023-11-22T05:39:44;9.50;99.90
5621;DHT22;2832;50.864;12.186;2023-11-22T05:42:12;9.50;99.90
5621;DHT22;2832;50.864;12.186;2023-11-22T05:44:39;9.50;99.90
5621;DHT22;2832;50.864;12.186;2023-11-22T05:47:08;9.50;99.90
5621;DHT22;2832;50.864;12.186;2023-11-22T05:49:37;9.50;99.90
5621;DHT22;2832;50.864;12.186;2023-11-22T05:52:08;9.60;99.90
5621;DHT22;2832;50.864;12.186;2023-11-22T05:54:42;9.50;99.90
5621;DHT22;2832;50.864;12.186;2023-11-22T05:57:44;9.50;99.90
5621;DHT22;2832;50.864;12.186;2023-11-22T06:00:15;9.50;99.90
5621;DHT22;2832;50.864;12.186;2023-11-22T06:02:47;9.60;99.90
5621;DHT22;2832;50.864;12.186;2023-11-22T06:09:08;9.70;99.90
5621;DHT22;2832;50.864;12.186;2023-11-22T06:11:45;9.60;99.90
5621;DHT22;2832;50.864;12.186;2023-11-22T06:14:17;9.60;99.90
5621;DHT22;2832;50.864;12.186;2023-11-22T06:16:47;9.60;99.90
5621;DHT22;2832;50.864;12.186;2023-11-22T06:19:16;9.60;99.90
5621;DHT22;2832;50.864;12.186;2023-11-22T06:21:48;9.60;99.90
5621;DHT22;2832;50.864;12.186;2023-11-22T06:24:18;9.60;99.90
5621;DHT22;2832;50.864;12.186;2023-11-22T06:26:51;9.60;99.90
5621;DHT22;2832;50.864;12.186;2023-11-22T06:29:19;9.60;99.90
5621;DHT22;2832;50.864;12.186;2023-11-22T06:31:47;9.60;99.90
5621;DHT22;2832;50.864;12.186;2023-11-22T06:34:16;9.50;99.90
5621;DHT22;2832;50.864;12.186;2023-11-22T06:36:43;9.50;99.90
5621;DHT22;2832;50.864;12.186;2023-11-22T06:39:11;9.50;99.90
5621;DHT22;2832;50.864;12.186;2023-11-22T06:41:40;9.40;99.90
5621;DHT22;2832;50.864;12.186;2023-11-22T06:44:10;9.40;99.90
5621;DHT22;2832;50.864;12.186;2023-11-22T06:46:38;9.40;99.90
5621;DHT22;2832;50.864;12.186;2023-11-22T06:49:06;9.40;99.90
5621;DHT22;2832;50.864;12.186;2023-11-22T06:51:34;9.40;99.90
5621;DHT22;2832;50.864;12.186;2023-11-22T06:54:02;9.30;99.90
5621;DHT22;2832;50.864;12.186;2023-11-22T06:56:31;9.30;99.90
5621;DHT22;2832;50.864;12.186;2023-11-22T06:59:04;9.30;99.90
5621;DHT22;2832;50.864;12.186;2023-11-22T07:01:34;9.20;99.90
5621;DHT22;2832;50.864;12.186;2023-11-22T07:04:05;9.30;99.90
5621;DHT22;2832;50.864;12.186;2023-11-22T07:06:39;9.30;99.90
5621;DHT22;2832;50.864;12.186;2023-11-22T07:09:07;9.30;99.90
5621;DHT22;2832;50.864;12.186;2023-11-22T07:11:39;9.30;99.90
5621;DHT22;2832;50.864;12.186;2023-11-22T07:14:09;9.30;99.90
5621;DHT22;2832;50.864;12.186;2023-11-22T07:16:58;9.30;99.90
5621;DHT22;2832;50.864;12.186;2023-11-22T07:19:27;9.30;99.90
5621;DHT22;2832;50.864;12.186;2023-11-22T07:21:58;9.30;99.90
5621;DHT22;2832;50.864;12.186;2023-11-22T07:24:31;9.30;99.90
5621;DHT22;2832;50.864;12.186;2023-11-22T07:27:01;9.30;99.90
5621;DHT22;2832;50.864;12.186;2023-11-22T07:29:31;9.30;99.90
5621;DHT22;2832;50.864;12.186;2023-11-22T07:32:01;9.40;99.90
5621;DHT22;2832;50.864;12.186;2023-11-22T07:34:32;9.30;99.90
5621;DHT22;2832;50.864;12.186;2023-11-22T07:37:06;9.40;99.90
5621;DHT22;2832;50.864;12.186;2023-11-22T07:39:34;9.40;99.90
5621;DHT22;2832;50.864;12.186;2023-11-22T07:42:08;9.50;99.90
5621;DHT22;2832;50.864;12.186;2023-11-22T07:44:36;9.50;99.90
5621;DHT22;2832;50.864;12.186;2023-11-22T07:47:09;9.50;99.90
5621;DHT22;2832;50.864;12.186;2023-11-22T07:49:41;9.50;99.90
5621;DHT22;2832;50.864;12.186;2023-11-22T07:52:12;9.50;99.90
5621;DHT22;2832;50.864;12.186;2023-11-22T07:54:41;9.50;99.90
5621;DHT22;2832;50.864;12.186;2023-11-22T07:57:13;9.50;99.90
5621;DHT22;2832;50.864;12.186;2023-11-22T07:59:44;9.40;99.90
5621;DHT22;2832;50.864;12.186;2023-11-22T08:02:16;9.40;99.90
5621;DHT22;2832;50.864;12.186;2023-11-22T08:04:48;9.30;99.90
5621;DHT22;2832;50.864;12.186;2023-11-22T08:07:27;9.30;99.90
5621;DHT22;2832;50.864;12.186;2023-11-22T08:10:00;9.30;99.90
5621;DHT22;2832;50.864;12.186;2023-11-22T08:12:41;9.30;99.90
5621;DHT22;2832;50.864;12.186;2023-11-22T08:15:12;9.20;99.90
5621;DHT22;2832;50.864;12.186;2023-11-22T08:17:45;9.20;99.90
5621;DHT22;2832;50.864;12.186;2023-11-22T08:20:18;9.20;99.90
5621;DHT22;2832;50.864;12.186;2023-11-22T08:22:55;9.20;99.90
5621;DHT22;2832;50.864;12.186;2023-11-22T08:25:24;9.20;99.90
5621;DHT22;2832;50.864;12.186;2023-11-22T08:27:53;9.20;99.90
5621;DHT22;2832;50.864;12.186;2023-11-22T08:30:21;9.10;99.90
5621;DHT22;2832;50.864;12.186;2023-11-22T08:32:51;9.10;99.90
5621;DHT22;2832;50.864;12.186;2023-11-22T08:35:26;9.10;99.90
5621;DHT22;2832;50.864;12.186;2023-11-22T08:37:55;9.10;99.90
5621;DHT22;2832;50.864;12.186;2023-11-22T08:40:31;9.00;99.90
5621;DHT22;2832;50.864;12.186;2023-11-22T08:43:06;9.00;99.90
5621;DHT22;2832;50.864;12.186;2023-11-22T08:45:49;9.00;99.90
5621;DHT22;2832;50.864;12.186;2023-11-22T08:48:32;8.90;99.90
5621;DHT22;2832;50.864;12.186;2023-11-22T08:51:09;8.90;99.90
5621;DHT22;2832;50.864;12.186;2023-11-22T08:53:44;8.90;99.90
5621;DHT22;2832;50.864;12.186;2023-11-22T08:56:16;8.90;99.90
5621;DHT22;2832;50.864;12.186;2023-11-22T08:58:46;8.90;99.90
5621;DHT22;2832;50.864;12.186;2023-11-22T09:01:22;8.90;99.90
5621;DHT22;2832;50.864;12.186;2023-11-22T09:03:55;8.80;99.90
5621;DHT22;2832;50.864;12.186;2023-11-22T09:06:24;8.80;99.90
5621;DHT22;2832;50.864;12.186;2023-11-22T09:08:53;8.80;99.90
5621;DHT22;2832;50.864;12.186;2023-11-22T09:11:23;8.80;99.90
5621;DHT22;2832;50.864;12.186;2023-11-22T09:14:00;8.80;99.90
5621;DHT22;2832;50.864;12.186;2023-11-22T09:16:38;8.70;99.90
5621;DHT22;2832;50.864;12.186;2023-11-22T09:19:13;8.80;99.90
5621;DHT22;2832;50.864;12.186;2023-11-22T09:21:47;8.70;99.90
5621;DHT22;2832;50.864;12.186;2023-11-22T09:24:15;8.70;99.90
5621;DHT22;2832;50.864;12.186;2023-11-22T09:30:09;8.70;99.90
5621;DHT22;2832;50.864;12.186;2023-11-22T09:32:53;8.60;99.90
5621;DHT22;2832;50.864;12.186;2023-11-22T09:35:27;8.60;99.90
5621;DHT22;2832;50.864;12.186;2023-11-22T09:37:59;8.60;99.90
5621;DHT22;2832;50.864;12.186;2023-11-22T09:40:30;8.60;99.90
5621;DHT22;2832;50.864;12.186;2023-11-22T09:42:59;8.50;99.90
5621;DHT22;2832;50.864;12.186;2023-11-22T09:45:29;8.50;99.90
5621;DHT22;2832;50.864;12.186;2023-11-22T09:48:12;8.50;99.90
5621;DHT22;2832;50.864;12.186;2023-11-22T09:51:05;8.60;99.90
5621;DHT22;2832;50.864;12.186;2023-11-22T09:53:51;8.60;99.90
5621;DHT22;2832;50.864;12.186;2023-11-22T09:56:30;8.50;99.90
5621;DHT22;2832;50.864;12.186;2023-11-22T09:59:00;8.50;99.90
5621;DHT22;2832;50.864;12.186;2023-11-22T10:01:30;8.50;99.90
5621;DHT22;2832;50.864;12.186;2023-11-22T10:04:03;8.50;99.90
5621;DHT22;2832;50.864;12.186;2023-11-22T10:06:42;8.50;99.90
5621;DHT22;2832;50.864;12.186;2023-11-22T10:09:16;8.40;99.90
5621;DHT22;2832;50.864;12.186;2023-11-22T10:11:50;8.50;99.90
5621;DHT22;2832;50.864;12.186;2023-11-22T10:14:22;8.50;99.90
5621;DHT22;2832;50.864;12.186;2023-11-22T10:17:00;8.50;99.90
5621;DHT22;2832;50.864;12.186;2023-11-22T10:19:28;8.50;99.90
5621;DHT22;2832;50.864;12.186;2023-11-22T10:22:08;8.50;99.90
5621;DHT22;2832;50.864;12.186;2023-11-22T10:24:44;8.40;99.90
5621;DHT22;2832;50.864;12.186;2023-11-22T10:27:15;8.50;99.90
5621;DHT22;2832;50.864;12.186;2023-11-22T10:29:51;8.50;99.90
5621;DHT22;2832;50.864;12.186;2023-11-22T10:32:34;8.40;99.90
5621;DHT22;2832;50.864;12.186;2023-11-22T10:35:08;8.40;99.90
5621;DHT22;2832;50.864;12.186;2023-11-22T10:37:46;8.40;99.90
5621;DHT22;2832;50.864;12.186;2023-11-22T10:40:19;8.40;99.90
5621;DHT22;2832;50.864;12.186;2023-11-22T10:42:48;8.40;99.90
5621;DHT22;2832;50.864;12.186;2023-11-22T10:45:21;8.40;99.90
5621;DHT22;2832;50.864;12.186;2023-11-22T10:47:52;8.40;99.90
5621;DHT22;2832;50.864;12.186;2023-11-22T10:50:21;8.30;99.90
5621;DHT22;2832;50.864;12.186;2023-11-22T10:52:54;8.30;99.90
5621;DHT22;2832;50.864;12.186;2023-11-22T10:55:27;8.30;99.90
5621;DHT22;2832;50.864;12.186;2023-11-22T10:58:00;8.30;99.90
5621;DHT22;2832;50.864;12.186;2023-11-22T11:00:34;8.30;99.90
5621;DHT22;2832;50.864;12.186;2023-11-22T11:03:16;8.70;99.90
5621;DHT22;2832;50.864;12.186;2023-11-22T11:05:54;8.90;99.90
5621;DHT22;2832;50.864;12.186;2023-11-22T11:08:29;9.10;99.90
5621;DHT22;2832;50.864;12.186;2023-11-22T11:11:05;9.40;99.90
5621;DHT22;2832;50.864;12.186;2023-11-22T11:13:35;9.60;99.90
5621;DHT22;2832;50.864;12.186;2023-11-22T11:16:09;9.80;99.90
5621;DHT22;2832;50.864;12.186;2023-11-22T11:18:37;9.90;99.90
5621;DHT22;2832;50.864;12.186;2023-11-22T11:21:09;10.10;99.90
5621;DHT22;2832;50.864;12.186;2023-11-22T11:23:40;10.20;99.90
5621;DHT22;2832;50.864;12.186;2023-11-22T11:26:17;10.30;99.90
5621;DHT22;2832;50.864;12.186;2023-11-22T11:28:49;10.40;99.90
5621;DHT22;2832;50.864;12.186;2023-11-22T11:31:23;10.40;99.90
5621;DHT22;2832;50.864;12.186;2023-11-22T11:34:06;10.40;99.90
5621;DHT22;2832;50.864;12.186;2023-11-22T11:36:41;10.60;99.90
5621;DHT22;2832;50.864;12.186;2023-11-22T11:39:14;10.60;99.90
5621;DHT22;2832;50.864;12.186;2023-11-22T11:41:48;10.60;99.90
5621;DHT22;2832;50.864;12.186;2023-11-22T11:44:26;10.60;99.90
5621;DHT22;2832;50.864;12.186;2023-11-22T11:46:58;10.80;99.90
5621;DHT22;2832;50.864;12.186;2023-11-22T11:49:28;10.80;99.90
5621;DHT22;2832;50.864;12.186;2023-11-22T11:52:00;10.80;99.90
5621;DHT22;2832;50.864;12.186;2023-11-22T11:54:50;10.90;99.90
5621;DHT22;2832;50.864;12.186;2023-11-22T11:57:39;10.90;99.90
5621;DHT22;2832;50.864;12.186;2023-11-22T12:00:17;10.80;99.90
5621;DHT22;2832;50.864;12.186;2023-11-22T12:02:48;10.80;99.90
5621;DHT22;2832;50.864;12.186;2023-11-22T12:05:24;10.80;99.90
5621;DHT22;2832;50.864;12.186;2023-11-22T12:07:58;10.80;99.90
5621;DHT22;2832;50.864;12.186;2023-11-22T12:10:30;10.80;99.90
5621;DHT22;2832;50.864;12.186;2023-11-22T12:12:58;10.80;99.90
5621;DHT22;2832;50.864;12.186;2023-11-22T12:15:29;10.80;99.90
5621;DHT22;2832;50.864;12.186;2023-11-22T12:18:02;10.80;99.90
5621;DHT22;2832;50.864;12.186;2023-11-22T12:20:38;10.70;99.90
5621;DHT22;2832;50.864;12.186;2023-11-22T12:23:06;10.70;99.90
5621;DHT22;2832;50.864;12.186;2023-11-22T12:25:36;10.60;99.90
5621;DHT22;2832;50.864;12.186;2023-11-22T12:28:11;10.70;99.90
5621;DHT22;2832;50.864;12.186;2023-11-22T12:30:39;10.70;99.90
5621;DHT22;2832;50.864;12.186;2023-11-22T12:33:11;10.80;99.90
5621;DHT22;2832;50.864;12.186;2023-11-22T12:35:42;10.70;99.90
5621;DHT22;2832;50.864;12.186;2023-11-22T12:38:17;10.70;99.90
5621;DHT22;2832;50.864;12.186;2023-11-22T12:40:57;10.70;99.90
5621;DHT22;2832;50.864;12.186;2023-11-22T12:43:27;10.70;99.90
5621;DHT22;2832;50.864;12.186;2023-11-22T12:46:00;10.70;99.90
5621;DHT22;2832;50.864;12.186;2023-11-22T12:48:30;10.70;99.90
5621;DHT22;2832;50.864;12.186;2023-11-22T12:50:59;10.80;99.90
5621;DHT22;2832;50.864;12.186;2023-11-22T12:53:27;10.80;99.90
5621;DHT22;2832;50.864;12.186;2023-11-22T12:55:57;10.80;99.90
5621;DHT22;2832;50.864;12.186;2023-11-22T12:58:25;10.90;99.90
5621;DHT22;2832;50.864;12.186;2023-11-22T13:00:54;10.90;99.90
5621;DHT22;2832;50.864;12.186;2023-11-22T13:03:35;10.90;99.90
5621;DHT22;2832;50.864;12.186;2023-11-22T13:06:04;10.90;99.90
5621;DHT22;2832;50.864;12.186;2023-11-22T13:08:35;10.80;99.90
5621;DHT22;2832;50.864;12.186;2023-11-22T13:11:22;10.80;99.90
5621;DHT22;2832;50.864;12.186;2023-11-22T13:13:57;10.80;99.90
5621;DHT22;2832;50.864;12.186;2023-11-22T13:16:30;10.90;99.90
5621;DHT22;2832;50.864;12.186;2023-11-22T13:19:00;10.80;99.90
5621;DHT22;2832;50.864;12.186;2023-11-22T13:21:31;10.80;99.90
5621;DHT22;2832;50.864;12.186;2023-11-22T13:24:04;10.90;99.90
5621;DHT22;2832;50.864;12.186;2023-11-22T13:26:44;10.90;99.90
5621;DHT22;2832;50.864;12.186;2023-11-22T13:29:16;10.80;99.90
5621;DHT22;2832;50.864;12.186;2023-11-22T13:31:45;10.90;99.90
5621;DHT22;2832;50.864;12.186;2023-11-22T13:34:13;10.90;99.90
5621;DHT22;2832;50.864;12.186;2023-11-22T13:36:45;10.90;99.90
5621;DHT22;2832;50.864;12.186;2023-11-22T13:39:18;11.00;99.90
5621;DHT22;2832;50.864;12.186;2023-11-22T13:42:00;10.90;99.90
5621;DHT22;2832;50.864;12.186;2023-11-22T13:44:31;11.00;99.90
5621;DHT22;2832;50.864;12.186;2023-11-22T13:46:59;11.00;99.90
5621;DHT22;2832;50.864;12.186;2023-11-22T13:49:33;11.00;99.90
5621;DHT22;2832;50.864;12.186;2023-11-22T13:52:11;10.90;99.90
5621;DHT22;2832;50.864;12.186;2023-11-22T13:54:44;10.90;99.90
5621;DHT22;2832;50.864;12.186;2023-11-22T13:57:19;10.80;99.90
5621;DHT22;2832;50.864;12.186;2023-11-22T13:59:51;10.80;99.90
5621;DHT22;2832;50.864;12.186;2023-11-22T14:02:22;10.80;99.90
5621;DHT22;2832;50.864;12.186;2023-11-22T14:04:53;10.80;99.90
5621;DHT22;2832;50.864;12.186;2023-11-22T14:07:21;10.80;99.90
5621;DHT22;2832;50.864;12.186;2023-11-22T14:09:49;10.80;99.90
5621;DHT22;2832;50.864;12.186;2023-11-22T14:12:19;10.90;99.90
5621;DHT22;2832;50.864;12.186;2023-11-22T14:14:46;11.00;99.90
5621;DHT22;2832;50.864;12.186;2023-11-22T14:17:15;11.00;99.90
5621;DHT22;2832;50.864;12.186;2023-11-22T14:19:50;11.00;99.90
5621;DHT22;2832;50.864;12.186;2023-11-22T14:22:20;10.70;99.90
5621;DHT22;2832;50.864;12.186;2023-11-22T14:24:52;10.50;99.90
5621;DHT22;2832;50.864;12.186;2023-11-22T14:27:23;10.40;99.90
5621;DHT22;2832;50.864;12.186;2023-11-22T14:29:52;10.10;99.90
5621;DHT22;2832;50.864;12.186;2023-11-22T14:32:29;9.90;99.90
5621;DHT22;2832;50.864;12.186;2023-11-22T14:34:57;9.80;99.90
5621;DHT22;2832;50.864;12.186;2023-11-22T14:37:24;9.70;99.90
5621;DHT22;2832;50.864;12.186;2023-11-22T14:39:52;9.60;99.90
5621;DHT22;2832;50.864;12.186;2023-11-22T14:42:27;9.40;99.90
5621;DHT22;2832;50.864;12.186;2023-11-22T14:44:59;9.30;99.90
5621;DHT22;2832;50.864;12.186;2023-11-22T14:47:27;9.20;99.90
5621;DHT22;2832;50.864;12.186;2023-11-22T14:50:03;9.20;99.90
5621;DHT22;2832;50.864;12.186;2023-11-22T14:52:36;9.10;99.90
5621;DHT22;2832;50.864;12.186;2023-11-22T14:55:08;9.00;99.90
5621;DHT22;2832;50.864;12.186;2023-11-22T14:57:40;9.00;99.90
5621;DHT22;2832;50.864;12.186;2023-11-22T15:00:13;9.00;99.90
5621;DHT22;2832;50.864;12.186;2023-11-22T15:02:46;9.00;99.90
5621;DHT22;2832;50.864;12.186;2023-11-22T15:05:18;8.90;99.90
5621;DHT22;2832;50.864;12.186;2023-11-22T15:07:49;8.90;99.90
5621;DHT22;2832;50.864;12.186;2023-11-22T15:10:24;8.90;99.90
5621;DHT22;2832;50.864;12.186;2023-11-22T15:12:55;8.90;99.90
5621;DHT22;2832;50.864;12.186;2023-11-22T15:15:30;8.90;99.90
5621;DHT22;2832;50.864;12.186;2023-11-22T15:18:09;8.80;99.90
5621;DHT22;2832;50.864;12.186;2023-11-22T15:20:40;8.80;99.90
5621;DHT22;2832;50.864;12.186;2023-11-22T15:23:10;8.70;99.90
5621;DHT22;2832;50.864;12.186;2023-11-22T15:25:39;8.70;99.90
5621;DHT22;2832;50.864;12.186;2023-11-22T15:28:10;8.70;99.90
5621;DHT22;2832;50.864;12.186;2023-11-22T15:30:40;8.60;99.90
5621;DHT22;2832;50.864;12.186;2023-11-22T15:33:09;8.60;99.90
5621;DHT22;2832;50.864;12.186;2023-11-22T15:35:42;8.50;99.90
5621;DHT22;2832;50.864;12.186;2023-11-22T15:38:10;8.50;99.90
5621;DHT22;2832;50.864;12.186;2023-11-22T15:40:44;8.40;99.90
5621;DHT22;2832;50.864;12.186;2023-11-22T15:43:17;8.40;99.90
5621;DHT22;2832;50.864;12.186;2023-11-22T15:45:49;8.50;99.90
5621;DHT22;2832;50.864;12.186;2023-11-22T15:48:19;8.50;99.90
5621;DHT22;2832;50.864;12.186;2023-11-22T15:50:47;8.50;99.90
5621;DHT22;2832;50.864;12.186;2023-11-22T15:53:18;8.50;99.90
5621;DHT22;2832;50.864;12.186;2023-11-22T15:56:02;8.40;99.90
5621;DHT22;2832;50.864;12.186;2023-11-22T15:58:35;8.40;99.90
5621;DHT22;2832;50.864;12.186;2023-11-22T16:01:08;8.40;99.90
5621;DHT22;2832;50.864;12.186;2023-11-22T16:03:38;8.50;99.90
5621;DHT22;2832;50.864;12.186;2023-11-22T16:06:07;8.40;99.90
5621;DHT22;2832;50.864;12.186;2023-11-22T16:08:36;8.40;99.90
5621;DHT22;2832;50.864;12.186;2023-11-22T16:11:04;8.50;99.90
5621;DHT22;2832;50.864;12.186;2023-11-22T16:13:32;8.40;99.90
5621;DHT22;2832;50.864;12.186;2023-11-22T16:16:02;8.40;99.90
5621;DHT22;2832;50.864;12.186;2023-11-22T16:18:34;8.40;99.90
5621;DHT22;2832;50.864;12.186;2023-11-22T16:21:07;8.30;99.90
5621;DHT22;2832;50.864;12.186;2023-11-22T16:23:51;8.30;99.90
5621;DHT22;2832;50.864;12.186;2023-11-22T16:26:21;8.30;99.90
5621;DHT22;2832;50.864;12.186;2023-11-22T16:28:52;8.30;99.90
5621;DHT22;2832;50.864;12.186;2023-11-22T16:31:21;8.40;99.90